createdAt,value
2018-05-17T00:00:01.249Z,19.93
2018-05-17T00:02:29.494Z,17.60
2018-05-17T00:04:57.757Z,17.60
2018-05-17T00:07:26.017Z,19.33
2018-05-17T00:09:55.045Z,18.37
2018-05-17T00:12:23.330Z,18.40
2018-05-17T00:14:51.715Z,17.70
2018-05-17T00:17:19.973Z,18.77
2018-05-17T00:19:48.232Z,19.53
2018-05-17T00:22:16.507Z,20.80
2018-05-17T00:24:45.518Z,17.60
2018-05-17T00:27:13.803Z,18.87
2018-05-17T00:29:42.072Z,18.20
2018-05-17T00:32:10.337Z,17.20
2018-05-17T00:34:38.599Z,18.33
2018-05-17T00:37:07.800Z,15.57
2018-05-17T00:39:36.879Z,13.63
2018-05-17T00:42:05.946Z,15.90
2018-05-17T00:44:34.211Z,19.80
2018-05-17T00:47:02.482Z,23.40
2018-05-17T00:49:30.767Z,23.83
2018-05-17T00:51:59.025Z,22.83
2018-05-17T00:54:27.300Z,21.80
2018-05-17T00:56:55.559Z,18.33
2018-05-17T00:59:23.833Z,18.10
2018-05-17T01:01:52.139Z,17.80
2018-05-17T01:04:20.422Z,17.60
2018-05-17T01:06:48.682Z,16.10
2018-05-17T01:09:16.942Z,17.03
2018-05-17T01:11:45.198Z,12.53
2018-05-17T01:14:13.454Z,13.70
2018-05-17T01:16:41.726Z,13.47
2018-05-17T01:19:10.002Z,15.00
2018-05-17T01:21:38.257Z,12.03
2018-05-17T01:24:06.550Z,10.67
2018-05-17T01:26:34.815Z,12.37
2018-05-17T01:29:03.095Z,13.80
2018-05-17T01:31:31.375Z,13.87
2018-05-17T01:33:59.677Z,12.33
2018-05-17T01:36:27.958Z,15.07
2018-05-17T01:38:56.992Z,14.77
2018-05-17T01:41:25.256Z,13.90
2018-05-17T01:43:53.538Z,13.63
2018-05-17T01:46:21.811Z,14.80
2018-05-17T01:48:50.079Z,14.53
2018-05-17T01:51:18.345Z,16.27
2018-05-17T01:53:46.601Z,14.73
2018-05-17T01:56:15.628Z,13.23
2018-05-17T01:58:43.917Z,13.83
2018-05-17T02:01:12.173Z,13.10
2018-05-17T02:03:40.421Z,12.40
2018-05-17T02:06:09.448Z,14.40
2018-05-17T02:08:37.707Z,12.30
2018-05-17T02:11:05.985Z,14.00
2018-05-17T02:13:34.251Z,12.87
2018-05-17T02:16:03.283Z,12.37
2018-05-17T02:18:31.629Z,13.10
2018-05-17T02:21:00.650Z,13.53
2018-05-17T02:23:28.969Z,12.33
2018-05-17T02:25:57.231Z,12.57
2018-05-17T02:28:25.497Z,11.80
2018-05-17T02:30:53.772Z,12.93
2018-05-17T02:33:22.028Z,13.10
2018-05-17T02:35:50.271Z,12.90
2018-05-17T02:38:19.306Z,10.73
2018-05-17T02:40:47.554Z,11.10
2018-05-17T02:43:16.574Z,11.10
2018-05-17T02:45:44.843Z,12.60
2018-05-17T02:48:13.864Z,10.03
2018-05-17T02:50:42.137Z,11.93
2018-05-17T02:53:10.396Z,10.70
2018-05-17T02:55:38.641Z,11.90
2018-05-17T02:58:06.901Z,9.97
2018-05-17T03:00:35.919Z,11.27
2018-05-17T03:03:04.188Z,11.50
2018-05-17T03:05:32.477Z,12.90
2018-05-17T03:08:00.755Z,12.33
2018-05-17T03:10:29.016Z,10.70
2018-05-17T03:12:57.295Z,12.40
2018-05-17T03:15:25.557Z,12.13
2018-05-17T03:17:54.586Z,11.00
2018-05-17T03:20:22.851Z,13.20
2018-05-17T03:22:51.102Z,14.33
2018-05-17T03:25:20.131Z,13.30
2018-05-17T03:27:48.397Z,12.80
2018-05-17T03:30:16.656Z,13.37
2018-05-17T03:32:45.014Z,14.40
2018-05-17T03:35:14.027Z,12.90
2018-05-17T03:37:42.311Z,14.70
2018-05-17T03:40:10.562Z,13.60
2018-05-17T03:42:39.643Z,14.07
2018-05-17T03:45:07.916Z,11.70
2018-05-17T03:47:36.190Z,13.37
2018-05-17T03:50:05.238Z,14.07
2018-05-17T03:52:33.528Z,12.63
2018-05-17T03:55:01.793Z,13.70
2018-05-17T03:57:30.072Z,13.30
2018-05-17T03:59:58.324Z,14.10
2018-05-17T04:02:38.601Z,11.50
2018-05-17T04:05:18.808Z,12.33
2018-05-17T04:07:47.127Z,13.47
2018-05-17T04:10:15.382Z,12.10
2018-05-17T04:12:43.664Z,11.37
2018-05-17T04:15:11.935Z,12.80
2018-05-17T04:17:40.952Z,12.80
2018-05-17T04:20:09.213Z,11.37
2018-05-17T04:22:38.254Z,12.80
2018-05-17T04:25:06.517Z,11.00
2018-05-17T04:27:34.787Z,12.67
2018-05-17T04:30:03.185Z,12.20
2018-05-17T04:32:31.450Z,9.53
2018-05-17T04:34:59.716Z,7.63
2018-05-17T04:37:27.993Z,9.43
2018-05-17T04:39:56.259Z,7.73
2018-05-17T04:42:24.529Z,7.83
2018-05-17T04:44:52.789Z,7.57
2018-05-17T04:47:21.815Z,7.63
2018-05-17T04:49:50.076Z,7.47
2018-05-17T04:52:18.345Z,8.33
2018-05-17T04:54:47.448Z,7.10
2018-05-17T04:57:15.639Z,8.10
2018-05-17T04:59:43.910Z,7.57
2018-05-17T05:02:12.167Z,8.10
2018-05-17T05:04:41.174Z,6.90
2018-05-17T05:07:09.442Z,7.00
2018-05-17T05:09:37.720Z,5.80
2018-05-17T05:12:05.983Z,6.80
2018-05-17T05:14:34.265Z,5.77
2018-05-17T05:17:02.534Z,6.37
2018-05-17T05:19:30.806Z,6.70
2018-05-17T05:21:59.128Z,6.63
2018-05-17T05:24:27.394Z,7.23
2018-05-17T05:26:55.688Z,6.17
2018-05-17T05:29:23.947Z,6.10
2018-05-17T05:31:52.223Z,5.83
2018-05-17T05:34:20.483Z,6.00
2018-05-17T05:36:48.789Z,5.47
2018-05-17T05:39:17.061Z,4.97
2018-05-17T05:41:45.341Z,5.37
2018-05-17T05:44:13.597Z,4.83
2018-05-17T05:46:41.836Z,5.37
2018-05-17T05:49:10.943Z,4.33
2018-05-17T05:51:39.180Z,5.50
2018-05-17T05:54:07.473Z,5.23
2018-05-17T05:56:36.515Z,5.70
2018-05-17T05:59:04.777Z,4.57
2018-05-17T06:01:33.078Z,5.10
2018-05-17T06:04:01.352Z,5.40
2018-05-17T06:06:29.822Z,4.77
2018-05-17T06:08:58.092Z,5.37
2018-05-17T06:11:26.380Z,4.90
2018-05-17T06:13:54.655Z,4.40
2018-05-17T06:16:23.762Z,5.33
2018-05-17T06:18:52.303Z,6.50
2018-05-17T06:21:21.999Z,4.83
2018-05-17T06:23:51.059Z,4.60
2018-05-17T06:26:19.321Z,4.70
2018-05-17T06:28:47.591Z,5.70
2018-05-17T06:31:15.866Z,4.30
2018-05-17T06:33:44.133Z,5.20
2018-05-17T06:36:12.381Z,4.77
2018-05-17T06:38:41.419Z,5.30
2018-05-17T06:41:09.683Z,4.93
2018-05-17T06:43:37.943Z,5.90
2018-05-17T06:46:06.214Z,4.60
2018-05-17T06:48:34.472Z,4.37
2018-05-17T06:51:03.540Z,3.63
2018-05-17T06:53:32.504Z,3.97
2018-05-17T06:56:00.761Z,4.87
2018-05-17T06:58:29.045Z,4.60
2018-05-17T07:00:57.346Z,4.00
2018-05-17T07:03:25.573Z,6.33
2018-05-17T07:05:54.610Z,4.90
2018-05-17T07:08:22.922Z,6.57
2018-05-17T07:10:51.188Z,4.67
2018-05-17T07:13:19.442Z,4.87
2018-05-17T07:15:47.741Z,4.83
2018-05-17T07:18:16.252Z,3.60
2018-05-17T07:20:45.297Z,4.20
2018-05-17T07:23:13.567Z,4.57
2018-05-17T07:25:41.819Z,4.90
2018-05-17T07:28:10.087Z,4.70
2018-05-17T07:30:39.126Z,3.87
2018-05-17T07:33:07.411Z,3.50
2018-05-17T07:35:35.678Z,4.03
2018-05-17T07:38:03.973Z,3.50
2018-05-17T07:40:32.280Z,3.73
2018-05-17T07:43:01.386Z,3.93
2018-05-17T07:45:29.701Z,4.23
2018-05-17T07:47:58.090Z,4.50
2018-05-17T07:50:26.306Z,4.50
2018-05-17T07:52:55.355Z,3.60
2018-05-17T07:55:24.495Z,4.07
2018-05-17T07:57:53.531Z,4.07
2018-05-17T08:00:21.787Z,3.83
2018-05-17T08:02:50.037Z,4.13
2018-05-17T08:05:19.090Z,5.10
2018-05-17T08:07:47.374Z,3.90
2018-05-17T08:10:15.636Z,3.10
2018-05-17T08:12:43.983Z,3.83
2018-05-17T08:15:12.249Z,4.80
2018-05-17T08:17:40.542Z,3.77
2018-05-17T08:20:08.803Z,3.10
2018-05-17T08:22:37.076Z,3.67
2018-05-17T08:25:05.351Z,3.70
2018-05-17T08:27:33.937Z,3.80
2018-05-17T08:30:02.232Z,3.30
2018-05-17T08:32:30.485Z,3.60
2018-05-17T08:34:58.741Z,3.40
2018-05-17T08:37:27.778Z,2.93
2018-05-17T08:39:56.028Z,2.73
2018-05-17T08:42:24.292Z,3.90
2018-05-17T08:44:53.341Z,3.23
2018-05-17T08:47:21.606Z,3.70
2018-05-17T08:49:49.881Z,4.27
2018-05-17T08:52:18.185Z,2.83
2018-05-17T08:54:46.449Z,3.00
2018-05-17T08:57:14.721Z,3.60
2018-05-17T08:59:43.052Z,3.67
2018-05-17T09:02:11.255Z,3.13
2018-05-17T09:04:39.513Z,5.90
2018-05-17T09:07:07.781Z,3.20
2018-05-17T09:09:36.045Z,2.87
2018-05-17T09:12:05.077Z,3.17
2018-05-17T09:14:33.381Z,3.13
2018-05-17T09:17:02.371Z,3.43
2018-05-17T09:19:30.746Z,3.47
2018-05-17T09:21:58.996Z,3.10
2018-05-17T09:24:27.278Z,2.93
2018-05-17T09:26:55.540Z,4.33
2018-05-17T09:29:23.788Z,3.70
2018-05-17T09:31:52.994Z,2.97
2018-05-17T09:34:21.323Z,3.00
2018-05-17T09:36:49.642Z,4.00
2018-05-17T09:39:17.977Z,3.63
2018-05-17T09:41:47.080Z,4.13
2018-05-17T09:44:16.144Z,3.63
2018-05-17T09:46:44.398Z,4.03
2018-05-17T09:49:12.702Z,4.50
2018-05-17T09:51:40.958Z,4.03
2018-05-17T09:54:09.891Z,4.10
2018-05-17T09:56:38.168Z,3.90
2018-05-17T09:59:06.449Z,4.17
2018-05-17T10:01:34.745Z,3.33
2018-05-17T10:04:03.791Z,4.33
2018-05-17T10:06:32.183Z,3.63
2018-05-17T10:09:00.472Z,5.80
2018-05-17T10:11:29.325Z,3.63
2018-05-17T10:13:57.663Z,3.70
2018-05-17T10:16:25.846Z,3.77
2018-05-17T10:18:55.289Z,4.77
2018-05-17T10:21:23.535Z,4.07
2018-05-17T10:23:51.813Z,4.37
2018-05-17T10:26:20.078Z,4.20
2018-05-17T10:28:48.351Z,3.53
2018-05-17T10:31:16.618Z,4.00
2018-05-17T10:33:45.656Z,4.90
2018-05-17T10:36:16.891Z,5.00
2018-05-17T10:38:45.161Z,4.47
2018-05-17T10:41:13.406Z,3.90
2018-05-17T10:43:42.549Z,4.10
2018-05-17T10:46:10.814Z,4.47
2018-05-17T10:48:39.082Z,4.00
2018-05-17T10:51:07.393Z,5.07
2018-05-17T10:53:35.628Z,4.90
2018-05-17T10:56:03.891Z,4.90
2018-05-17T10:58:32.176Z,4.30
2018-05-17T11:01:00.466Z,3.60
2018-05-17T11:03:28.715Z,4.47
2018-05-17T11:05:57.727Z,3.77
2018-05-17T11:08:26.132Z,4.90
2018-05-17T11:10:54.439Z,4.60
2018-05-17T11:13:22.739Z,5.47
2018-05-17T11:15:51.778Z,5.40
2018-05-17T11:18:20.155Z,5.43
2018-05-17T11:20:48.447Z,4.70
2018-05-17T11:23:16.722Z,4.47
2018-05-17T11:25:45.313Z,5.27
2018-05-17T11:28:13.591Z,4.40
2018-05-17T11:30:41.866Z,4.77
2018-05-17T11:33:10.167Z,4.00
2018-05-17T11:35:38.385Z,3.87
2018-05-17T11:38:06.639Z,4.30
2018-05-17T11:40:35.649Z,4.60
2018-05-17T11:43:03.942Z,3.90
2018-05-17T11:45:32.243Z,4.00
2018-05-17T11:48:01.426Z,4.50
2018-05-17T11:50:29.783Z,4.67
2018-05-17T11:52:58.901Z,4.77
2018-05-17T11:55:27.948Z,5.30
2018-05-17T11:57:56.302Z,4.40
2018-05-17T12:00:25.327Z,4.67
2018-05-17T12:02:53.635Z,4.57
2018-05-17T12:05:21.896Z,4.30
2018-05-17T12:07:50.155Z,5.23
2018-05-17T12:10:18.426Z,3.37
2018-05-17T12:12:46.698Z,4.80
2018-05-17T12:15:15.043Z,4.37
2018-05-17T12:17:43.289Z,3.73
2018-05-17T12:20:12.327Z,3.50
2018-05-17T12:22:40.622Z,3.97
2018-05-17T12:25:08.881Z,4.13
2018-05-17T12:27:37.150Z,3.53
2018-05-17T12:30:06.204Z,4.00
2018-05-17T12:32:34.460Z,4.23
2018-05-17T12:35:04.063Z,4.40
2018-05-17T12:37:32.328Z,3.90
2018-05-17T12:40:00.617Z,3.67
2018-05-17T12:42:29.605Z,4.83
2018-05-17T12:44:58.929Z,3.87
2018-05-17T12:47:27.248Z,4.10
2018-05-17T12:49:56.292Z,4.90
2018-05-17T12:52:24.542Z,4.03
2018-05-17T12:54:52.791Z,4.33
2018-05-17T12:57:21.843Z,4.70
2018-05-17T12:59:50.097Z,4.40
2018-05-17T13:02:18.356Z,4.30
2018-05-17T13:04:46.609Z,3.53
2018-05-17T13:07:15.667Z,4.10
2018-05-17T13:09:43.940Z,5.10
2018-05-17T13:12:12.207Z,3.23
2018-05-17T13:14:41.406Z,4.80
2018-05-17T13:17:11.646Z,4.07
2018-05-17T13:19:39.934Z,4.47
2018-05-17T13:22:08.201Z,4.00
2018-05-17T13:24:36.464Z,4.27
2018-05-17T13:27:05.667Z,4.30
2018-05-17T13:29:33.993Z,3.87
2018-05-17T13:32:03.036Z,4.43
2018-05-17T13:34:31.307Z,4.20
2018-05-17T13:36:59.600Z,3.50
2018-05-17T13:39:27.888Z,4.10
2018-05-17T13:41:56.151Z,3.70
2018-05-17T13:44:24.440Z,4.23
2018-05-17T13:46:52.831Z,4.47
2018-05-17T13:49:21.890Z,3.73
2018-05-17T13:51:50.161Z,4.03
2018-05-17T13:54:18.406Z,4.67
2018-05-17T13:56:47.543Z,6.00
2018-05-17T13:59:15.797Z,3.30
2018-05-17T14:01:44.085Z,3.97
2018-05-17T14:04:12.356Z,4.03
2018-05-17T14:06:40.684Z,4.30
2018-05-17T14:09:08.873Z,3.97
2018-05-17T14:11:37.138Z,4.37
2018-05-17T14:14:06.185Z,5.10
2018-05-17T14:16:34.583Z,4.00
2018-05-17T14:19:02.833Z,4.10
2018-05-17T14:21:31.935Z,4.40
2018-05-17T14:24:00.188Z,4.37
2018-05-17T14:26:28.483Z,5.07
2018-05-17T14:28:57.478Z,4.37
2018-05-17T14:31:25.736Z,3.80
2018-05-17T14:33:53.982Z,3.13
2018-05-17T14:36:22.238Z,4.00
2018-05-17T14:38:51.347Z,4.00
2018-05-17T14:41:19.554Z,4.90
2018-05-17T14:43:47.809Z,4.63
2018-05-17T14:46:16.185Z,2.80
2018-05-17T14:48:44.457Z,4.77
2018-05-17T14:51:13.513Z,4.83
2018-05-17T14:53:41.779Z,4.30
2018-05-17T14:56:10.249Z,5.00
2018-05-17T14:58:38.581Z,3.90
2018-05-17T15:01:07.614Z,5.00
2018-05-17T15:03:35.969Z,5.17
2018-05-17T15:06:05.063Z,3.33
2018-05-17T15:08:34.196Z,4.70
2018-05-17T15:11:03.202Z,5.07
2018-05-17T15:13:31.479Z,4.40
2018-05-17T15:15:59.793Z,3.77
2018-05-17T15:18:28.849Z,3.77
2018-05-17T15:20:57.221Z,3.93
2018-05-17T15:23:25.497Z,4.33
2018-05-17T15:25:53.755Z,3.63
2018-05-17T15:28:22.072Z,3.13
2018-05-17T15:30:50.363Z,3.87
2018-05-17T15:33:19.427Z,3.80
2018-05-17T15:35:47.683Z,3.77
2018-05-17T15:38:16.184Z,3.77
2018-05-17T15:40:44.431Z,4.20
2018-05-17T15:43:12.686Z,3.50
2018-05-17T15:45:40.946Z,3.93
2018-05-17T15:48:10.059Z,4.00
2018-05-17T15:50:38.238Z,4.70
2018-05-17T15:53:06.486Z,4.50
2018-05-17T15:55:35.564Z,3.60
2018-05-17T15:58:03.832Z,4.33
2018-05-17T16:00:34.232Z,3.57
2018-05-17T16:03:02.496Z,3.87
2018-05-17T16:05:30.785Z,4.10
2018-05-17T16:07:59.055Z,4.13
2018-05-17T16:10:27.320Z,7.13
2018-05-17T16:12:56.304Z,3.90
2018-05-17T16:15:24.714Z,4.90
2018-05-17T16:17:53.750Z,4.80
2018-05-17T16:20:22.896Z,4.10
2018-05-17T16:22:51.157Z,3.90
2018-05-17T16:25:19.396Z,3.60
2018-05-17T16:27:48.468Z,4.37
2018-05-17T16:30:16.718Z,4.50
2018-05-17T16:32:45.013Z,3.80
2018-05-17T16:35:13.260Z,4.77
2018-05-17T16:37:41.537Z,4.80
2018-05-17T16:40:09.799Z,3.70
2018-05-17T16:42:38.129Z,3.70
2018-05-17T16:45:06.379Z,4.80
2018-05-17T16:47:34.649Z,4.33
2018-05-17T16:50:02.901Z,3.70
2018-05-17T16:52:31.236Z,4.90
2018-05-17T16:54:59.443Z,4.03
2018-05-17T16:57:27.698Z,4.90
2018-05-17T16:59:55.956Z,4.13
2018-05-17T17:02:24.221Z,3.50
2018-05-17T17:04:52.530Z,3.60
2018-05-17T17:07:20.799Z,3.67
2018-05-17T17:09:49.881Z,2.93
2018-05-17T17:12:18.169Z,3.93
2018-05-17T17:14:46.417Z,4.17
2018-05-17T17:17:14.668Z,4.50
2018-05-17T17:19:42.930Z,4.40
2018-05-17T17:22:11.300Z,3.70
2018-05-17T17:24:40.310Z,4.47
2018-05-17T17:27:08.580Z,3.43
2018-05-17T17:29:36.842Z,3.70
2018-05-17T17:32:05.861Z,3.97
2018-05-17T17:34:34.850Z,4.87
2018-05-17T17:37:03.158Z,4.60
2018-05-17T17:39:31.432Z,4.70
2018-05-17T17:41:59.704Z,4.23
2018-05-17T17:44:27.983Z,3.93
2018-05-17T17:46:56.246Z,4.67
2018-05-17T17:49:24.534Z,3.00
2018-05-17T17:51:52.805Z,4.33
2018-05-17T17:54:21.097Z,4.10
2018-05-17T17:56:49.373Z,5.13
2018-05-17T17:59:17.672Z,5.77
2018-05-17T18:01:45.929Z,4.10
2018-05-17T18:04:14.191Z,4.07
2018-05-17T18:06:42.569Z,4.30
2018-05-17T18:09:10.874Z,4.20
2018-05-17T18:11:39.899Z,3.17
2018-05-17T18:14:08.159Z,3.67
2018-05-17T18:16:37.244Z,5.40
2018-05-17T18:19:07.407Z,3.90
2018-05-17T18:21:35.682Z,4.20
2018-05-17T18:24:03.941Z,3.60
2018-05-17T18:26:32.192Z,4.60
2018-05-17T18:29:00.446Z,3.73
2018-05-17T18:31:28.725Z,4.50
2018-05-17T18:33:57.006Z,4.20
2018-05-17T18:36:25.283Z,4.67
2018-05-17T18:38:53.818Z,3.97
2018-05-17T18:41:22.085Z,4.30
2018-05-17T18:43:50.524Z,4.00
2018-05-17T18:46:18.772Z,4.10
2018-05-17T18:48:47.035Z,3.20
2018-05-17T18:51:15.334Z,4.83
2018-05-17T18:53:43.600Z,3.83
2018-05-17T18:56:11.901Z,4.30
2018-05-17T18:58:40.974Z,4.07
2018-05-17T19:01:09.317Z,4.30
2018-05-17T19:03:37.581Z,4.00
2018-05-17T19:06:06.628Z,3.87
2018-05-17T19:08:34.927Z,4.50
2018-05-17T19:11:04.040Z,3.70
2018-05-17T19:13:33.070Z,4.73
2018-05-17T19:16:01.368Z,4.23
2018-05-17T19:18:29.628Z,4.37
2018-05-17T19:20:57.933Z,6.27
2018-05-17T19:23:26.245Z,3.87
2018-05-17T19:25:55.336Z,4.70
2018-05-17T19:28:23.661Z,3.60
2018-05-17T19:30:51.918Z,5.10
2018-05-17T19:33:20.324Z,4.17
2018-05-17T19:35:48.678Z,5.23
2018-05-17T19:38:17.078Z,5.40
2018-05-17T19:40:45.513Z,4.27
2018-05-17T19:43:13.962Z,4.17
2018-05-17T19:45:42.237Z,4.70
2018-05-17T19:48:12.018Z,5.90
2018-05-17T19:50:40.293Z,4.50
2018-05-17T19:53:08.655Z,4.97
2018-05-17T19:55:36.964Z,5.37
2018-05-17T19:58:05.245Z,4.00
2018-05-17T20:00:33.534Z,5.07
2018-05-17T20:03:01.818Z,4.97
2018-05-17T20:05:30.082Z,4.17
2018-05-17T20:07:59.564Z,6.00
2018-05-17T20:10:27.891Z,4.80
2018-05-17T20:12:56.953Z,5.90
2018-05-17T20:15:25.214Z,5.23
2018-05-17T20:17:53.513Z,4.97
2018-05-17T20:20:22.584Z,5.30
2018-05-17T20:22:50.929Z,5.77
2018-05-17T20:25:19.192Z,6.10
2018-05-17T20:27:48.232Z,7.00
2018-05-17T20:30:16.528Z,5.97
2018-05-17T20:32:44.793Z,6.00
2018-05-17T20:35:13.082Z,5.50
2018-05-17T20:37:42.137Z,5.77
2018-05-17T20:40:10.410Z,7.30
2018-05-17T20:42:38.702Z,6.60
2018-05-17T20:45:07.841Z,6.77
2018-05-17T20:47:36.146Z,5.47
2018-05-17T20:50:05.238Z,5.67
2018-05-17T20:52:33.504Z,5.40
2018-05-17T20:55:02.601Z,6.90
2018-05-17T20:57:31.629Z,6.30
2018-05-17T20:59:59.922Z,5.70
2018-05-17T21:02:28.217Z,6.27
2018-05-17T21:04:56.516Z,5.77
2018-05-17T21:07:25.791Z,5.50
2018-05-17T21:09:54.094Z,6.07
2018-05-17T21:12:23.151Z,6.00
2018-05-17T21:14:51.425Z,7.03
2018-05-17T21:17:19.727Z,6.33
2018-05-17T21:19:47.984Z,6.00
2018-05-17T21:22:16.242Z,5.67
2018-05-17T21:24:44.486Z,6.13
2018-05-17T21:27:12.780Z,5.97
2018-05-17T21:29:41.093Z,6.20
2018-05-17T21:32:09.350Z,6.33
2018-05-17T21:34:37.630Z,6.93
2018-05-17T21:37:05.895Z,6.40
2018-05-17T21:39:34.217Z,7.27
2018-05-17T21:42:02.411Z,5.73
2018-05-17T21:44:30.666Z,7.60
2018-05-17T21:46:58.943Z,6.80
2018-05-17T21:49:27.980Z,6.10
2018-05-17T21:51:56.547Z,7.10
2018-05-17T21:54:26.704Z,6.10
2018-05-17T21:56:55.011Z,5.53
2018-05-17T21:59:23.272Z,6.33
2018-05-17T22:01:51.530Z,7.07
2018-05-17T22:04:19.787Z,8.30
2018-05-17T22:06:48.060Z,7.23
2018-05-17T22:09:16.304Z,7.00
2018-05-17T22:11:45.345Z,7.13
2018-05-17T22:14:13.601Z,7.27
2018-05-17T22:16:41.851Z,7.07
2018-05-17T22:19:10.874Z,7.90
2018-05-17T22:21:39.123Z,7.60
2018-05-17T22:24:07.389Z,8.37
2018-05-17T22:26:36.470Z,10.20
2018-05-17T22:29:04.737Z,8.80
2018-05-17T22:31:33.009Z,7.23
2018-05-17T22:34:01.266Z,6.60
2018-05-17T22:36:29.518Z,8.23
2018-05-17T22:38:57.778Z,7.03
2018-05-17T22:41:26.057Z,8.67
2018-05-17T22:43:54.318Z,9.30
2018-05-17T22:46:23.343Z,7.60
2018-05-17T22:48:51.597Z,8.73
2018-05-17T22:51:19.875Z,8.63
2018-05-17T22:53:48.898Z,6.90
2018-05-17T22:56:29.042Z,8.30
2018-05-17T22:58:57.306Z,8.60
2018-05-17T23:01:25.545Z,8.47
2018-05-17T23:03:53.814Z,8.00
2018-05-17T23:06:22.095Z,9.10
2018-05-17T23:08:50.344Z,8.10
2018-05-17T23:11:18.593Z,7.80
2018-05-17T23:13:46.847Z,6.83
2018-05-17T23:16:15.870Z,7.60
2018-05-17T23:18:44.155Z,8.30
2018-05-17T23:21:12.418Z,9.83
2018-05-17T23:23:40.672Z,7.83
2018-05-17T23:26:09.735Z,9.17
2018-05-17T23:28:38.020Z,10.50
2018-05-17T23:31:07.036Z,11.60
2018-05-17T23:33:36.052Z,9.33
2018-05-17T23:36:04.319Z,10.20
2018-05-17T23:38:32.620Z,10.50
2018-05-17T23:41:12.860Z,8.73
2018-05-17T23:43:41.122Z,10.67
2018-05-17T23:46:09.383Z,10.23
2018-05-17T23:48:37.688Z,8.17
2018-05-17T23:51:06.060Z,10.83
2018-05-17T23:53:34.281Z,9.30
2018-05-17T23:56:02.548Z,10.20
2018-05-17T23:58:30.792Z,10.17
